Time;durP1;ratioP1;P1;durP2;ratioP2;P2;SDS_P1;SDS_P2;PMS_P1;PMS_P2;Temp;Humidity;BMP_temperature;BMP_pressure;BME280_temperature;BME280_humidity;BME280_pressure;Samples;Min_cycle;Max_cycle;Signal;HPM_P1;HPM_P2
2024/01/03 00:01:11;;;;;;;5.40;1.63;;;;;;;;;;4999859;28;20487;-86
2024/01/03 00:03:58;;;;;;;6.20;1.17;;;;;;;;;;4984392;28;20469;-86
2024/01/03 00:06:45;;;;;;;6.60;1.20;;;;;;;;;;4985404;28;20950;-84
2024/01/03 00:09:15;;;;;;;6.53;2.10;;;;;;;;;;4983480;28;20577;-86
2024/01/03 00:11:46;;;;;;;4.53;1.00;;;;;;;;;;4984238;28;20463;-82
2024/01/03 00:14:35;;;;;;;3.03;1.00;;;;;;;;;;4999071;28;20837;-87
2024/01/03 00:17:14;;;;;;;2.37;1.00;;;;;;;;;;4987879;28;20479;-85
2024/01/03 00:19:57;;;;;;;2.60;0.90;;;;;;;;;;5000757;28;21121;-86
2024/01/03 00:22:35;;;;;;;2.10;0.90;;;;;;;;;;4992066;28;20455;-86
2024/01/03 00:25:11;;;;;;;4.30;1.70;;;;;;;;;;4994850;28;20954;-87
2024/01/03 00:27:49;;;;;;;4.10;1.10;;;;;;;;;;4992836;28;20443;-85
2024/01/03 00:30:38;;;;;;;8.40;1.30;;;;;;;;;;5000002;28;20534;-86
2024/01/03 00:33:38;;;;;;;6.90;1.40;;;;;;;;;;4988115;28;20541;-88
2024/01/03 00:36:18;;;;;;;4.73;1.20;;;;;;;;;;4982246;28;20515;-88
2024/01/03 00:39:12;;;;;;;5.40;1.53;;;;;;;;;;5001557;28;20592;-86
2024/01/03 00:42:05;;;;;;;5.00;1.00;;;;;;;;;;5002001;28;20817;-86
2024/01/03 00:45:21;;;;;;;6.00;1.20;;;;;;;;;;5015096;28;20521;-85
2024/01/03 00:48:05;;;;;;;3.50;1.10;;;;;;;;;;4995533;28;20495;-87
2024/01/03 00:51:18;;;;;;;1.63;0.80;;;;;;;;;;4997100;28;20505;-86
2024/01/03 00:54:11;;;;;;;3.77;0.93;;;;;;;;;;5006702;28;20560;-86
2024/01/03 00:56:52;;;;;;;4.50;1.20;;;;;;;;;;4988536;28;21026;-85
2024/01/03 00:59:37;;;;;;;0.93;0.73;;;;;;;;;;4985273;28;20556;-85
2024/01/03 01:02:20;;;;;;;2.93;0.90;;;;;;;;;;4987329;28;20471;-86
2024/01/03 01:04:51;;;;;;;5.30;0.73;;;;;;;;;;5002547;28;20466;-86
2024/01/03 01:07:34;;;;;;;3.17;0.90;;;;;;;;;;4986667;28;20548;-88
2024/01/03 01:10:44;;;;;;;2.30;0.70;;;;;;;;;;5003349;28;20487;-89
2024/01/03 01:13:17;;;;;;;2.20;1.10;;;;;;;;;;4985882;28;20455;-86
2024/01/03 01:15:57;;;;;;;3.30;0.87;;;;;;;;;;4993320;28;20504;-85
2024/01/03 01:18:46;;;;;;;3.10;1.17;;;;;;;;;;4987277;28;20564;-85
2024/01/03 01:21:48;;;;;;;0.80;0.57;;;;;;;;;;4996113;28;20469;-86
2024/01/03 01:24:38;;;;;;;3.00;0.90;;;;;;;;;;4987952;28;20451;-86
2024/01/03 01:27:17;;;;;;;2.57;1.17;;;;;;;;;;4978049;28;20559;-85
2024/01/03 01:33:11;;;;;;;3.73;0.80;;;;;;;;;;4991103;28;20550;-89
2024/01/03 01:35:52;;;;;;;2.53;0.60;;;;;;;;;;4987736;28;20483;-88
2024/01/03 01:38:31;;;;;;;1.70;0.80;;;;;;;;;;4986218;28;20486;-88
2024/01/03 01:41:18;;;;;;;3.70;1.23;;;;;;;;;;4961305;28;20444;-86
2024/01/03 01:44:05;;;;;;;2.30;0.70;;;;;;;;;;4996410;28;20503;-87
2024/01/03 01:46:48;;;;;;;2.87;1.00;;;;;;;;;;4997836;28;20480;-87
2024/01/03 01:49:28;;;;;;;;;;;;;;;;;;;;;
2024/01/03 01:52:05;;;;;;;2.40;1.20;;;;;;;;;;4979790;28;20583;-87
2024/01/03 01:54:52;;;;;;;1.53;0.60;;;;;;;;;;4981439;28;20471;-88
2024/01/03 01:57:29;;;;;;;1.13;0.60;;;;;;;;;;4996710;28;20494;-88
2024/01/03 02:00:09;;;;;;;2.90;1.00;;;;;;;;;;4980222;28;20483;-89
2024/01/03 02:02:38;;;;;;;0.93;0.67;;;;;;;;;;4997308;28;20515;-88
2024/01/03 02:05:23;;;;;;;1.37;0.70;;;;;;;;;;4982203;28;20481;-87
2024/01/03 02:08:10;;;;;;;3.80;0.67;;;;;;;;;;4996157;28;20467;-86
2024/01/03 02:10:54;;;;;;;2.40;0.90;;;;;;;;;;4997087;28;20498;-87
2024/01/03 02:13:46;;;;;;;5.50;1.23;;;;;;;;;;4984404;28;20546;-87
2024/01/03 02:16:37;;;;;;;;;;;;;;;;;;;;;
2024/01/03 02:19:22;;;;;;;1.87;0.70;;;;;;;;;;4979678;28;21018;-85
2024/01/03 02:21:53;;;;;;;3.30;1.10;;;;;;;;;;4980483;28;20462;-86
2024/01/03 02:24:44;;;;;;;2.77;0.90;;;;;;;;;;4975810;28;20483;-87
2024/01/03 02:27:40;;;;;;;1.07;0.70;;;;;;;;;;4998167;28;20889;-87
2024/01/03 02:30:17;;;;;;;4.37;0.93;;;;;;;;;;4992326;28;20584;-86
2024/01/03 02:33:06;;;;;;;4.63;0.90;;;;;;;;;;4977967;28;20464;-87
2024/01/03 02:35:57;;;;;;;3.30;0.93;;;;;;;;;;4972841;28;21069;-88
2024/01/03 02:38:57;;;;;;;;;;;;;;;;;;;;;
2024/01/03 02:41:35;;;;;;;1.30;0.90;;;;;;;;;;4975968;28;21130;-85
2024/01/03 02:47:33;;;;;;;1.40;0.77;;;;;;;;;;4928673;28;20509;-87
2024/01/03 02:50:23;;;;;;;2.20;0.93;;;;;;;;;;4923665;29;22141;-87
2024/01/03 02:53:09;;;;;;;2.37;0.80;;;;;;;;;;4923298;29;20973;-88
2024/01/03 02:55:39;;;;;;;1.70;0.60;;;;;;;;;;4934067;29;20537;-87
2024/01/03 02:58:14;;;;;;;3.10;0.90;;;;;;;;;;4935381;28;20466;-88
2024/01/03 03:00:57;;;;;;;2.53;0.93;;;;;;;;;;4930527;28;20548;-85
2024/01/03 03:03:37;;;;;;;5.67;1.00;;;;;;;;;;4921862;28;20465;-87
2024/01/03 03:06:26;;;;;;;1.50;0.77;;;;;;;;;;4917867;28;20461;-84
2024/01/03 03:09:18;;;;;;;3.30;0.90;;;;;;;;;;4921049;29;20873;-85
2024/01/03 03:11:55;;;;;;;2.13;0.70;;;;;;;;;;4917741;29;20970;-87
2024/01/03 03:14:39;;;;;;;3.33;0.60;;;;;;;;;;4920731;29;20480;-87
2024/01/03 03:17:43;;;;;;;1.73;1.10;;;;;;;;;;4942260;28;20535;-86
2024/01/03 03:20:46;;;;;;;1.43;0.73;;;;;;;;;;4989343;28;20463;-86
2024/01/03 03:23:29;;;;;;;1.17;1.00;;;;;;;;;;4990510;28;20467;-86
2024/01/03 03:26:03;;;;;;;2.03;0.90;;;;;;;;;;4973443;28;20606;-87
2024/01/03 03:28:57;;;;;;;2.03;0.73;;;;;;;;;;4995401;28;21225;-88
2024/01/03 03:31:32;;;;;;;3.07;0.90;;;;;;;;;;4993747;28;20538;-89
2024/01/03 03:34:11;;;;;;;1.43;0.80;;;;;;;;;;5010933;28;20466;-87
2024/01/03 03:37:05;;;;;;;1.93;0.70;;;;;;;;;;4998068;28;20521;-87
2024/01/03 03:39:50;;;;;;;1.67;0.80;;;;;;;;;;5001035;28;20436;-86
2024/01/03 03:42:39;;;;;;;3.93;0.83;;;;;;;;;;4985559;28;20487;-87
2024/01/03 03:45:19;;;;;;;2.50;1.27;;;;;;;;;;4981910;28;20551;-86
2024/01/03 03:48:10;;;;;;;4.20;1.17;;;;;;;;;;4971265;28;20463;-87
2024/01/03 03:51:05;;;;;;;3.43;1.50;;;;;;;;;;4998041;28;20494;-86
2024/01/03 03:53:45;;;;;;;1.57;1.00;;;;;;;;;;4998703;28;20582;-85
2024/01/03 03:59:34;;;;;;;3.03;0.60;;;;;;;;;;4981459;28;20491;-86
2024/01/03 04:02:15;;;;;;;7.40;1.03;;;;;;;;;;5010713;28;20440;-88
2024/01/03 04:04:55;;;;;;;2.50;1.00;;;;;;;;;;5002915;28;20459;-88
2024/01/03 04:07:47;;;;;;;5.97;1.17;;;;;;;;;;5002246;28;20478;-88
2024/01/03 04:10:34;;;;;;;4.13;0.90;;;;;;;;;;4994536;28;20483;-86
2024/01/03 04:13:27;;;;;;;3.40;0.83;;;;;;;;;;4990034;28;21007;-88
2024/01/03 04:16:09;;;;;;;4.40;1.70;;;;;;;;;;4994041;28;20492;-84
2024/01/03 04:19:10;;;;;;;2.43;0.83;;;;;;;;;;4987484;28;20538;-89
2024/01/03 04:25:10;;;;;;;2.20;0.83;;;;;;;;;;4971724;28;20439;-85
2024/01/03 04:31:00;;;;;;;2.43;0.90;;;;;;;;;;4975865;28;20491;-84
2024/01/03 04:34:14;;;;;;;4.53;1.20;;;;;;;;;;4976251;28;20563;-87
2024/01/03 04:36:57;;;;;;;2.43;1.03;;;;;;;;;;4961771;28;21066;-86
2024/01/03 04:39:28;;;;;;;6.20;1.00;;;;;;;;;;4993399;28;20487;-84
2024/01/03 04:42:18;;;;;;;3.60;0.83;;;;;;;;;;4984702;28;20460;-88
2024/01/03 04:47:57;;;;;;;3.30;1.17;;;;;;;;;;4991205;28;20847;-88
2024/01/03 04:50:43;;;;;;;1.03;0.93;;;;;;;;;;5008116;28;22244;-87
2024/01/03 04:53:33;;;;;;;4.43;1.37;;;;;;;;;;5009778;28;20534;-86
2024/01/03 04:56:24;;;;;;;1.63;0.80;;;;;;;;;;5012665;28;20529;-84
2024/01/03 05:02:07;;;;;;;6.13;0.97;;;;;;;;;;4991861;28;20492;-87
2024/01/03 05:04:49;;;;;;;3.50;1.07;;;;;;;;;;4994676;28;20475;-87
2024/01/03 05:07:38;;;;;;;5.87;1.40;;;;;;;;;;4993675;28;20517;-84
2024/01/03 05:10:16;;;;;;;1.87;1.03;;;;;;;;;;4990670;28;20483;-86
2024/01/03 05:13:06;;;;;;;4.10;1.10;;;;;;;;;;4989911;28;20476;-84
2024/01/03 05:15:58;;;;;;;2.73;1.33;;;;;;;;;;4983440;28;20868;-86
2024/01/03 05:18:48;;;;;;;5.13;1.03;;;;;;;;;;4999369;28;20474;-83
2024/01/03 05:24:28;;;;;;;2.90;1.30;;;;;;;;;;4980363;28;20467;-86
2024/01/03 05:34:15;;;;;;;;;;;;;;;;;;;;;
2024/01/03 05:40:32;;;;;;;5.80;1.40;;;;;;;;;;4968036;28;20962;-88
2024/01/03 05:43:23;;;;;;;5.20;1.20;;;;;;;;;;4984077;28;20445;-86
2024/01/03 05:46:11;;;;;;;5.57;1.37;;;;;;;;;;4983763;28;20567;-87
2024/01/03 05:52:13;;;;;;;4.70;1.37;;;;;;;;;;4978959;28;20595;-85
2024/01/03 05:55:00;;;;;;;4.77;1.30;;;;;;;;;;4996025;28;20474;-88
2024/01/03 05:58:09;;;;;;;4.80;1.37;;;;;;;;;;4998147;28;20459;-85
2024/01/03 06:00:59;;;;;;;6.20;1.57;;;;;;;;;;4982212;28;21033;-86
2024/01/03 06:04:07;;;;;;;6.80;1.73;;;;;;;;;;4986380;28;20494;-86
2024/01/03 06:06:50;;;;;;;6.57;1.70;;;;;;;;;;5002122;28;20443;-88
2024/01/03 06:09:56;;;;;;;4.13;1.30;;;;;;;;;;5082852;23;20504;-86
2024/01/03 06:13:15;;;;;;;8.63;2.73;;;;;;;;;;5002220;28;20501;-87
2024/01/03 06:16:06;;;;;;;7.93;2.10;;;;;;;;;;5013617;28;20468;-86
2024/01/03 06:33:05;;;;;;;;;;;;;;;;;;;;;
2024/01/03 06:36:07;;;;;;;9.23;1.83;;;;;;;;;;5012887;28;20558;-87
2024/01/03 06:39:23;;;;;;;4.53;1.17;;;;;;;;;;5007004;28;20422;-87
2024/01/03 06:42:15;;;;;;;3.23;1.30;;;;;;;;;;5003982;28;20908;-89
2024/01/03 06:48:34;;;;;;;5.97;1.87;;;;;;;;;;4990471;28;20454;-87
2024/01/03 06:51:29;;;;;;;6.70;1.47;;;;;;;;;;4956103;28;20509;-86
2024/01/03 06:54:39;;;;;;;;;;;;;;;;;;;;;
2024/01/03 06:57:53;;;;;;;3.03;1.10;;;;;;;;;;4999425;28;20480;-85
2024/01/03 07:04:40;;;;;;;5.17;1.70;;;;;;;;;;4971094;28;20468;-87
2024/01/03 07:07:30;;;;;;;5.07;1.27;;;;;;;;;;4981590;28;20482;-85
2024/01/03 07:10:08;;;;;;;5.53;1.20;;;;;;;;;;4979543;28;20512;-89
2024/01/03 07:12:58;;;;;;;6.60;1.80;;;;;;;;;;4977674;28;20929;-86
2024/01/03 07:29:49;;;;;;;;;;;;;;;;;;;;;
2024/01/03 07:33:02;;;;;;;;;;;;;;;;;;;;;
2024/01/03 07:36:08;;;;;;;5.60;1.37;;;;;;;;;;4969171;28;20488;-86
2024/01/03 07:39:15;;;;;;;2.27;0.77;;;;;;;;;;4983247;28;20439;-86
2024/01/03 07:45:36;;;;;;;1.97;0.73;;;;;;;;;;4934847;28;20519;-86
2024/01/03 07:51:38;;;;;;;1.23;0.80;;;;;;;;;;4969915;28;20587;-88
2024/01/03 07:57:42;;;;;;;3.47;0.80;;;;;;;;;;4966167;28;20488;-86
2024/01/03 08:00:30;;;;;;;3.70;0.97;;;;;;;;;;4942409;28;20442;-89
2024/01/03 08:06:49;;;;;;;3.73;0.70;;;;;;;;;;4987800;23;21052;-89
2024/01/03 08:09:59;;;;;;;5.33;1.23;;;;;;;;;;5017226;28;20485;-87
2024/01/03 08:16:41;;;;;;;4.87;1.30;;;;;;;;;;4980797;28;20459;-87
2024/01/03 08:20:08;;;;;;;4.57;1.13;;;;;;;;;;5005752;28;20462;-86
2024/01/03 08:23:24;;;;;;;3.60;1.00;;;;;;;;;;4962360;28;20438;-86
2024/01/03 08:26:14;;;;;;;4.60;1.33;;;;;;;;;;4925769;28;20449;-85
2024/01/03 08:32:41;;;;;;;4.70;0.87;;;;;;;;;;5005351;28;20443;-86
2024/01/03 08:35:46;;;;;;;2.83;1.03;;;;;;;;;;4992442;28;20447;-86
2024/01/03 08:45:55;;;;;;;4.57;1.30;;;;;;;;;;4975776;28;20444;-87
2024/01/03 08:52:34;;;;;;;3.47;1.03;;;;;;;;;;4997456;28;20465;-86
2024/01/03 08:55:24;;;;;;;0.97;0.60;;;;;;;;;;4952568;28;20466;-87
2024/01/03 08:58:17;;;;;;;3.73;1.20;;;;;;;;;;5000343;28;20463;-87
2024/01/03 09:01:29;;;;;;;3.43;1.10;;;;;;;;;;5015180;28;20451;-86
2024/01/03 09:04:23;;;;;;;0.77;0.40;;;;;;;;;;5016831;28;20414;-88
2024/01/03 09:07:22;;;;;;;0.80;0.50;;;;;;;;;;5001975;28;21009;-88
2024/01/03 09:19:39;;;;;;;2.20;0.83;;;;;;;;;;5044843;23;20510;-87
2024/01/03 09:23:23;;;;;;;2.57;0.97;;;;;;;;;;5014944;28;20511;-87
2024/01/03 09:26:34;;;;;;;2.10;0.70;;;;;;;;;;4999568;28;20465;-86
2024/01/03 09:32:50;;;;;;;3.70;1.00;;;;;;;;;;4960364;28;20469;-87
2024/01/03 09:38:48;;;;;;;2.10;0.90;;;;;;;;;;4981407;28;20427;-87
2024/01/03 09:48:49;;;;;;;1.83;0.97;;;;;;;;;;5021743;28;20447;-87
2024/01/03 09:51:30;;;;;;;7.23;2.40;;;;;;;;;;5009688;28;20525;-88
2024/01/03 09:54:19;;;;;;;4.10;1.17;;;;;;;;;;4998824;28;20463;-87
2024/01/03 09:57:04;;;;;;;4.27;1.73;;;;;;;;;;4996978;28;20462;-88
2024/01/03 09:59:45;;;;;;;5.13;2.27;;;;;;;;;;5012406;28;20469;-88
2024/01/03 10:02:47;;;;;;;10.03;3.40;;;;;;;;;;5021157;28;20448;-87
2024/01/03 10:06:05;;;;;;;5.07;1.37;;;;;;;;;;5021059;28;20461;-87
2024/01/03 10:15:37;;;;;;;7.83;2.10;;;;;;;;;;5029322;28;20439;-90
2024/01/03 10:18:36;;;;;;;10.00;2.00;;;;;;;;;;4948656;28;20431;-86
2024/01/03 10:21:31;;;;;;;4.27;1.90;;;;;;;;;;4938054;28;20453;-88
2024/01/03 10:24:14;;;;;;;7.77;1.87;;;;;;;;;;5020330;28;20447;-87
2024/01/03 10:27:11;;;;;;;3.30;1.20;;;;;;;;;;4987751;28;20466;-88
2024/01/03 10:29:40;;;;;;;4.67;1.10;;;;;;;;;;5020733;28;20457;-89
2024/01/03 10:32:31;;;;;;;4.80;1.47;;;;;;;;;;5023880;28;20538;-88
2024/01/03 10:38:39;;;;;;;6.27;1.70;;;;;;;;;;5010756;28;20552;-88
2024/01/03 10:41:14;;;;;;;5.90;1.20;;;;;;;;;;5024634;28;20458;-88
2024/01/03 10:44:26;;;;;;;3.87;1.30;;;;;;;;;;5022361;28;20465;-87
2024/01/03 10:47:08;;;;;;;7.37;1.80;;;;;;;;;;5030127;28;20468;-87
2024/01/03 10:49:52;;;;;;;4.37;1.17;;;;;;;;;;5037024;28;20446;-88
2024/01/03 10:52:39;;;;;;;3.30;1.10;;;;;;;;;;5032466;28;20797;-88
2024/01/03 10:58:45;;;;;;;5.10;1.40;;;;;;;;;;5005738;28;20481;-86
2024/01/03 11:01:25;;;;;;;4.73;1.20;;;;;;;;;;5020534;28;20458;-85
2024/01/03 11:04:16;;;;;;;7.17;2.07;;;;;;;;;;5001687;28;21021;-87
2024/01/03 11:07:28;;;;;;;4.30;1.37;;;;;;;;;;4986992;28;20579;-88
2024/01/03 11:14:02;;;;;;;3.77;1.10;;;;;;;;;;5010935;28;20538;-88
2024/01/03 11:16:44;;;;;;;7.70;1.20;;;;;;;;;;5021309;28;22301;-91
2024/01/03 11:19:53;;;;;;;2.63;1.10;;;;;;;;;;5024664;28;20430;-90
2024/01/03 11:26:10;;;;;;;2.87;0.83;;;;;;;;;;5027473;28;20517;-87
2024/01/03 11:29:11;;;;;;;;;;;;;;;;;;;;;
2024/01/03 11:35:59;;;;;;;3.23;1.13;;;;;;;;;;4914098;29;20434;-88
2024/01/03 11:39:07;;;;;;;7.80;1.50;;;;;;;;;;4904227;29;21919;-89
2024/01/03 11:41:56;;;;;;;2.17;1.10;;;;;;;;;;4961663;28;20473;-89
2024/01/03 11:45:33;;;;;;;4.40;1.47;;;;;;;;;;4954676;28;20441;-87
2024/01/03 11:48:23;;;;;;;2.90;1.87;;;;;;;;;;4953847;28;20686;-89
2024/01/03 11:51:35;;;;;;;5.00;1.90;;;;;;;;;;4943057;28;20487;-88
2024/01/03 11:54:36;;;;;;;8.97;1.43;;;;;;;;;;4942068;28;20452;-88
2024/01/03 11:57:40;;;;;;;4.20;1.00;;;;;;;;;;4943681;28;20480;-87
2024/01/03 12:00:24;;;;;;;5.20;1.63;;;;;;;;;;4946827;28;20453;-86
2024/01/03 12:03:26;;;;;;;3.97;1.33;;;;;;;;;;4967241;28;20485;-87
2024/01/03 12:06:08;;;;;;;5.07;2.43;;;;;;;;;;5017544;28;20520;-88
2024/01/03 12:08:55;;;;;;;5.50;1.37;;;;;;;;;;5006043;28;20466;-89
2024/01/03 12:12:02;;;;;;;3.83;1.30;;;;;;;;;;5010507;28;20680;-87
2024/01/03 12:15:11;;;;;;;5.50;1.47;;;;;;;;;;5015827;28;20482;-87
2024/01/03 12:18:20;;;;;;;6.03;1.60;;;;;;;;;;5019344;28;20506;-88
2024/01/03 12:21:22;;;;;;;3.27;1.07;;;;;;;;;;5021253;28;20457;-87
2024/01/03 12:24:11;;;;;;;8.03;1.30;;;;;;;;;;5021095;28;20459;-87
2024/01/03 12:27:02;;;;;;;4.63;1.60;;;;;;;;;;5029472;28;20522;-89
2024/01/03 12:29:50;;;;;;;5.67;1.70;;;;;;;;;;5010369;28;20445;-88
2024/01/03 12:32:51;;;;;;;6.63;1.20;;;;;;;;;;5023413;28;20779;-90
2024/01/03 12:36:10;;;;;;;;;;;;;;;;;;;;;
2024/01/03 12:39:17;;;;;;;5.20;1.60;;;;;;;;;;5015406;28;20470;-88
2024/01/03 12:45:35;;;;;;;2.50;1.23;;;;;;;;;;5005306;28;20450;-87
2024/01/03 12:52:10;;;;;;;3.10;1.37;;;;;;;;;;5009208;28;20497;-90
2024/01/03 12:58:35;;;;;;;5.40;1.67;;;;;;;;;;5016216;28;22292;-89
2024/01/03 13:01:39;;;;;;;3.33;1.27;;;;;;;;;;5012549;28;20465;-87
2024/01/03 13:04:49;;;;;;;5.27;1.50;;;;;;;;;;5025793;28;20477;-87
2024/01/03 13:07:40;;;;;;;4.97;2.17;;;;;;;;;;5020004;28;20577;-86
2024/01/03 13:10:24;;;;;;;3.40;1.40;;;;;;;;;;4991302;28;20469;-89
2024/01/03 13:13:20;;;;;;;1.90;1.20;;;;;;;;;;5014246;28;20444;-87
2024/01/03 13:16:31;;;;;;;4.97;1.70;;;;;;;;;;5029939;28;20469;-85
2024/01/03 13:19:46;;;;;;;3.93;1.70;;;;;;;;;;4999904;28;20449;-89
2024/01/03 13:22:52;;;;;;;5.77;1.60;;;;;;;;;;5011987;28;20446;-87
2024/01/03 13:26:00;;;;;;;4.50;1.10;;;;;;;;;;4940023;28;20441;-87
2024/01/03 13:32:41;;;;;;;3.53;1.47;;;;;;;;;;4907132;28;20490;-86
2024/01/03 13:46:56;;;;;;;6.17;1.13;;;;;;;;;;4845289;29;20553;-88
2024/01/03 13:50:12;;;;;;;7.87;1.60;;;;;;;;;;4829116;29;20458;-89
2024/01/03 14:00:13;;;;;;;3.40;1.30;;;;;;;;;;4958765;28;20412;-89
2024/01/03 14:06:08;;;;;;;3.87;0.80;;;;;;;;;;5016917;28;20497;-86
2024/01/03 14:09:14;;;;;;;2.63;1.20;;;;;;;;;;5021494;28;20825;-88
2024/01/03 14:12:29;;;;;;;1.77;0.63;;;;;;;;;;4996387;28;20575;-89
2024/01/03 14:15:28;;;;;;;;;;;;;;;;;;;;;
2024/01/03 14:22:02;;;;;;;;;;;;;;;;;;;;;
2024/01/03 14:25:02;;;;;;;2.30;0.80;;;;;;;;;;5011457;28;20485;-87
2024/01/03 14:27:40;;;;;;;1.00;0.83;;;;;;;;;;5014273;28;20507;-86
2024/01/03 14:30:48;;;;;;;1.97;1.13;;;;;;;;;;5005021;28;20438;-83
2024/01/03 14:33:28;;;;;;;2.47;1.00;;;;;;;;;;5005672;28;20471;-86
2024/01/03 14:36:26;;;;;;;0.83;0.60;;;;;;;;;;5004763;28;20454;-87
2024/01/03 14:39:17;;;;;;;3.60;0.80;;;;;;;;;;5007098;28;20564;-85
2024/01/03 14:42:08;;;;;;;;;;;;;;;;;;;;;
2024/01/03 14:48:13;;;;;;;2.37;0.70;;;;;;;;;;5017043;28;20450;-86
2024/01/03 14:50:49;;;;;;;2.50;0.70;;;;;;;;;;5017423;28;20492;-87
2024/01/03 14:53:32;;;;;;;1.90;0.80;;;;;;;;;;5019716;28;20479;-86
2024/01/03 14:56:27;;;;;;;1.07;0.67;;;;;;;;;;5001081;28;20964;-87
2024/01/03 15:02:20;;;;;;;2.20;1.47;;;;;;;;;;5003792;28;20505;-87
2024/01/03 15:04:57;;;;;;;3.70;1.20;;;;;;;;;;5017120;28;20541;-86
2024/01/03 15:07:40;;;;;;;5.20;1.57;;;;;;;;;;5004139;28;20569;-84
2024/01/03 15:10:36;;;;;;;2.53;1.10;;;;;;;;;;5003995;28;20796;-85
2024/01/03 15:13:25;;;;;;;1.87;0.80;;;;;;;;;;5011100;28;20455;-88
2024/01/03 15:16:25;;;;;;;2.57;0.90;;;;;;;;;;5014868;28;20604;-87
2024/01/03 15:19:03;;;;;;;4.10;1.23;;;;;;;;;;5012617;28;20497;-86
2024/01/03 15:22:13;;;;;;;4.27;1.37;;;;;;;;;;5014662;28;20446;-86
2024/01/03 15:24:53;;;;;;;3.70;1.20;;;;;;;;;;5018524;28;20482;-87
2024/01/03 15:27:33;;;;;;;4.83;1.50;;;;;;;;;;5022303;28;20466;-84
2024/01/03 15:30:08;;;;;;;3.00;1.07;;;;;;;;;;5028555;28;20520;-85
2024/01/03 15:32:38;;;;;;;4.00;1.30;;;;;;;;;;5031094;28;20475;-86
2024/01/03 15:35:19;;;;;;;4.93;1.90;;;;;;;;;;5011523;28;20490;-86
2024/01/03 15:37:56;;;;;;;4.87;1.40;;;;;;;;;;5029377;28;20490;-86
2024/01/03 15:40:35;;;;;;;4.77;1.20;;;;;;;;;;5031764;28;20458;-87
2024/01/03 15:43:39;;;;;;;3.77;1.10;;;;;;;;;;5023084;28;20438;-84
2024/01/03 15:46:17;;;;;;;5.03;1.60;;;;;;;;;;5015974;28;20496;-85
2024/01/03 15:49:03;;;;;;;4.17;1.53;;;;;;;;;;5015690;28;20463;-87
2024/01/03 15:51:57;;;;;;;5.73;1.80;;;;;;;;;;5017259;28;20477;-84
2024/01/03 15:54:40;;;;;;;;;;;;;;;;;;;;;
2024/01/03 15:57:32;;;;;;;5.87;1.90;;;;;;;;;;5012935;28;20501;-84
2024/01/03 16:03:08;;;;;;;2.57;1.30;;;;;;;;;;5018307;28;20489;-86
2024/01/03 16:05:57;;;;;;;4.33;1.20;;;;;;;;;;5016427;28;20529;-87
2024/01/03 16:08:53;;;;;;;2.87;1.40;;;;;;;;;;4989481;28;20595;-88
2024/01/03 16:11:31;;;;;;;5.90;1.27;;;;;;;;;;5017627;28;20492;-88
2024/01/03 16:14:27;;;;;;;3.03;1.20;;;;;;;;;;5016785;28;20467;-84
2024/01/03 16:17:13;;;;;;;7.67;1.60;;;;;;;;;;4964633;28;20512;-86
2024/01/03 16:20:20;;;;;;;6.20;1.70;;;;;;;;;;4946161;28;20448;-88
2024/01/03 16:22:59;;;;;;;4.10;1.63;;;;;;;;;;4940605;28;20469;-87
2024/01/03 16:25:46;;;;;;;3.30;1.43;;;;;;;;;;4962228;28;20457;-87
2024/01/03 16:28:30;;;;;;;7.30;1.63;;;;;;;;;;4949736;28;20456;-87
2024/01/03 16:31:29;;;;;;;3.73;1.00;;;;;;;;;;4947991;28;20480;-86
2024/01/03 16:34:27;;;;;;;2.10;1.20;;;;;;;;;;4957861;28;20533;-87
2024/01/03 16:37:16;;;;;;;4.03;1.30;;;;;;;;;;4944842;28;20952;-87
2024/01/03 16:40:14;;;;;;;;;;;;;;;;;;;;;
2024/01/03 16:46:17;;;;;;;3.23;1.30;;;;;;;;;;4950361;28;21037;-85
2024/01/03 16:49:16;;;;;;;4.20;1.50;;;;;;;;;;4937428;28;20456;-86
2024/01/03 16:52:09;;;;;;;5.70;1.90;;;;;;;;;;4936030;28;20495;-88
2024/01/03 16:54:55;;;;;;;2.73;1.53;;;;;;;;;;4992132;28;20529;-85
2024/01/03 16:57:39;;;;;;;;;;;;;;;;;;;;;
2024/01/03 17:00:17;;;;;;;3.90;1.20;;;;;;;;;;5006023;28;20460;-86
2024/01/03 17:03:19;;;;;;;6.67;1.70;;;;;;;;;;4943666;28;21196;-86
2024/01/03 17:06:12;;;;;;;2.80;1.20;;;;;;;;;;4934152;29;20491;-86
2024/01/03 17:08:57;;;;;;;5.23;1.67;;;;;;;;;;4925002;29;20527;-88
2024/01/03 17:11:33;;;;;;;3.23;1.13;;;;;;;;;;4916912;29;20478;-84
2024/01/03 17:14:27;;;;;;;4.40;1.40;;;;;;;;;;4931468;29;20455;-86
2024/01/03 17:17:22;;;;;;;3.70;0.97;;;;;;;;;;4915875;29;20504;-89
2024/01/03 17:23:19;;;;;;;;;;;;;;;;;;;;;
2024/01/03 17:26:11;;;;;;;;;;;;;;;;;;;;;
2024/01/03 17:28:50;;;;;;;5.10;1.30;;;;;;;;;;4941217;29;20442;-86
2024/01/03 17:31:35;;;;;;;;;;;;;;;;;;;;;
2024/01/03 17:34:48;;;;;;;3.33;1.13;;;;;;;;;;4988366;28;20445;-86
2024/01/03 17:37:36;;;;;;;3.03;1.27;;;;;;;;;;5021273;28;20492;-84
2024/01/03 17:40:11;;;;;;;3.00;1.03;;;;;;;;;;5028872;28;20544;-84
2024/01/03 17:43:15;;;;;;;;;;;;;;;;;;;;;
2024/01/03 17:46:08;;;;;;;3.63;1.20;;;;;;;;;;5033404;28;20458;-85
2024/01/03 17:48:49;;;;;;;1.67;1.30;;;;;;;;;;5036837;28;20461;-85
2024/01/03 17:54:33;;;;;;;3.13;1.10;;;;;;;;;;5034215;28;20477;-86
2024/01/03 17:57:10;;;;;;;3.63;1.30;;;;;;;;;;5036438;28;20480;-86
2024/01/03 17:59:46;;;;;;;4.13;1.47;;;;;;;;;;5031005;28;20462;-85
2024/01/03 18:02:35;;;;;;;2.20;1.53;;;;;;;;;;5029126;28;20540;-85
2024/01/03 18:05:12;;;;;;;2.57;0.93;;;;;;;;;;5025566;28;20451;-84
2024/01/03 18:07:55;;;;;;;6.10;1.80;;;;;;;;;;5009974;28;20472;-88
2024/01/03 18:10:42;;;;;;;6.07;1.50;;;;;;;;;;5009136;28;20507;-85
2024/01/03 18:13:23;;;;;;;5.00;1.67;;;;;;;;;;5022807;28;20549;-87
2024/01/03 18:16:04;;;;;;;3.27;1.00;;;;;;;;;;5022248;28;20470;-86
2024/01/03 18:18:38;;;;;;;3.90;1.27;;;;;;;;;;5028275;28;20461;-89
2024/01/03 18:21:27;;;;;;;;;;;;;;;;;;;;;
2024/01/03 18:24:09;;;;;;;3.53;1.50;;;;;;;;;;5032268;28;20465;-87
2024/01/03 18:27:06;;;;;;;5.30;1.77;;;;;;;;;;5027055;28;20542;-87
2024/01/03 18:29:53;;;;;;;4.83;1.60;;;;;;;;;;5009605;28;20454;-87
2024/01/03 18:32:50;;;;;;;3.70;0.90;;;;;;;;;;5026514;28;20485;-85
2024/01/03 18:35:41;;;;;;;3.17;1.17;;;;;;;;;;5021294;28;21122;-86
2024/01/03 18:38:14;;;;;;;2.77;1.60;;;;;;;;;;5017397;28;20494;-86
2024/01/03 18:40:48;;;;;;;1.27;0.97;;;;;;;;;;5015662;28;20456;-85
2024/01/03 18:43:33;;;;;;;1.33;1.07;;;;;;;;;;5016896;28;20461;-86
2024/01/03 18:49:36;;;;;;;3.70;0.80;;;;;;;;;;5012634;28;20467;-85
2024/01/03 18:52:27;;;;;;;2.83;0.83;;;;;;;;;;5013490;28;22075;-85
2024/01/03 18:55:05;;;;;;;1.73;0.80;;;;;;;;;;5013573;28;20451;-86
2024/01/03 18:58:00;;;;;;;3.70;1.10;;;;;;;;;;5013899;28;20512;-84
2024/01/03 19:00:32;;;;;;;2.20;1.17;;;;;;;;;;5013609;28;20446;-85
2024/01/03 19:03:06;;;;;;;3.00;1.03;;;;;;;;;;5018907;28;20462;-87
2024/01/03 19:05:43;;;;;;;2.70;0.80;;;;;;;;;;5020115;28;20458;-87
2024/01/03 19:08:29;;;;;;;2.93;1.00;;;;;;;;;;5019398;28;20450;-84
2024/01/03 19:11:01;;;;;;;4.80;1.20;;;;;;;;;;5021951;28;20470;-85
2024/01/03 19:13:42;;;;;;;3.13;1.53;;;;;;;;;;5008728;28;20486;-85
2024/01/03 19:16:35;;;;;;;2.40;0.90;;;;;;;;;;5018270;28;20473;-85
2024/01/03 19:19:09;;;;;;;1.23;0.87;;;;;;;;;;5000443;28;20463;-85
2024/01/03 19:21:50;;;;;;;2.20;0.93;;;;;;;;;;5017259;28;20859;-86
2024/01/03 19:24:25;;;;;;;2.63;0.90;;;;;;;;;;5023730;28;20476;-87
2024/01/03 19:30:58;;;;;;;1.30;0.63;;;;;;;;;;4996911;28;20435;-86
2024/01/03 19:33:56;;;;;;;1.77;1.63;;;;;;;;;;5020800;28;20731;-88
2024/01/03 19:36:48;;;;;;;0.80;0.60;;;;;;;;;;4988921;28;20481;-86
2024/01/03 19:40:09;;;;;;;;;;;;;;;;;;;;;
2024/01/03 19:43:49;;;;;;;;;;;;;;;;;;;;;
2024/01/03 19:52:13;;;;;;;3.37;1.10;;;;;;;;;;4990887;28;20510;-87
2024/01/03 19:54:47;;;;;;;3.30;0.70;;;;;;;;;;5003962;28;20482;-87
2024/01/03 19:57:28;;;;;;;2.27;0.90;;;;;;;;;;4998563;28;20838;-86
2024/01/03 20:00:25;;;;;;;3.23;0.87;;;;;;;;;;4967681;28;20460;-86
2024/01/03 20:03:00;;;;;;;4.20;1.00;;;;;;;;;;4993806;28;20468;-87
2024/01/03 20:05:33;;;;;;;1.57;0.93;;;;;;;;;;5002245;28;20444;-85
2024/01/03 20:08:10;;;;;;;2.20;1.10;;;;;;;;;;4991732;28;20431;-87
2024/01/03 20:11:26;;;;;;;1.27;1.10;;;;;;;;;;5003195;28;20447;-86
2024/01/03 20:14:48;;;;;;;1.40;0.63;;;;;;;;;;4976932;28;20492;-87
2024/01/03 20:21:10;;;;;;;4.10;1.10;;;;;;;;;;5014430;28;20402;-88
2024/01/03 20:31:19;;;;;;;1.60;0.87;;;;;;;;;;4900414;29;20570;-86
2024/01/03 20:33:59;;;;;;;1.77;0.93;;;;;;;;;;4903823;29;20556;-87
2024/01/03 20:50:30;;;;;;;3.03;1.33;;;;;;;;;;5010679;28;20490;-87
2024/01/03 20:57:01;;;;;;;2.30;0.90;;;;;;;;;;4949990;28;20466;-88
2024/01/03 21:03:41;;;;;;;;;;;;;;;;;;;;;
2024/01/03 21:06:30;;;;;;;6.20;1.83;;;;;;;;;;4864370;29;20494;-86
2024/01/03 21:09:38;;;;;;;;;;;;;;;;;;;;;
2024/01/03 21:12:27;;;;;;;2.30;1.00;;;;;;;;;;4822529;29;20510;-86
2024/01/03 21:23:20;;;;;;;1.80;1.00;;;;;;;;;;4992854;28;20476;-85
2024/01/03 21:29:11;;;;;;;1.40;1.20;;;;;;;;;;4955066;28;20437;-88
2024/01/03 21:31:55;;;;;;;1.97;1.10;;;;;;;;;;4992022;28;20467;-86
2024/01/03 21:34:48;;;;;;;2.70;1.20;;;;;;;;;;4994231;28;20459;-88
2024/01/03 21:37:42;;;;;;;2.97;2.77;;;;;;;;;;5001754;28;20471;-87
2024/01/03 21:43:43;;;;;;;1.43;1.03;;;;;;;;;;4993109;28;20438;-89
2024/01/03 21:46:22;;;;;;;2.70;1.07;;;;;;;;;;4996746;28;20473;-88
2024/01/03 21:48:58;;;;;;;2.10;1.10;;;;;;;;;;4968304;28;20798;-88
2024/01/03 21:52:14;;;;;;;3.50;1.23;;;;;;;;;;4988831;28;20447;-88
2024/01/03 21:54:59;;;;;;;2.10;1.00;;;;;;;;;;4979597;28;20456;-86
2024/01/03 21:57:49;;;;;;;1.80;1.00;;;;;;;;;;4993961;28;20464;-87